createdAt,value
2019-04-21T00:00:29.819Z,19.17
2019-04-21T00:03:08.844Z,18.60
2019-04-21T00:05:52.678Z,20.80
2019-04-21T00:08:27.541Z,19.77
2019-04-21T00:11:01.388Z,20.40
2019-04-21T00:13:21.126Z,22.90
2019-04-21T00:15:40.713Z,19.90
2019-04-21T00:18:40.661Z,21.90
2019-04-21T00:21:15.079Z,20.43
2019-04-21T00:23:53.850Z,18.93
2019-04-21T00:26:25.365Z,24.83
2019-04-21T00:29:03.973Z,20.53
2019-04-21T00:31:24.549Z,19.63
2019-04-21T00:33:41.611Z,21.03
2019-04-21T00:36:16.908Z,24.37
2019-04-21T00:39:17.089Z,21.17
2019-04-21T00:41:29.598Z,18.73
2019-04-21T00:43:57.247Z,21.23
2019-04-21T00:46:30.738Z,17.30
2019-04-21T00:49:02.114Z,19.63
2019-04-21T00:51:47.860Z,19.67
2019-04-21T00:54:18.463Z,20.37
2019-04-21T00:56:45.962Z,19.10
2019-04-21T00:59:16.361Z,20.30
2019-04-21T01:01:43.674Z,29.60
2019-04-21T01:04:20.662Z,19.63
2019-04-21T01:06:48.048Z,19.17
2019-04-21T01:09:14.474Z,21.73
2019-04-21T01:11:50.544Z,21.27
2019-04-21T01:14:32.757Z,23.20
2019-04-21T01:16:56.068Z,19.47
2019-04-21T01:19:18.248Z,23.77
2019-04-21T01:21:31.188Z,20.67
2019-04-21T01:24:08.195Z,18.63
2019-04-21T01:26:43.767Z,20.40
2019-04-21T01:29:22.367Z,18.47
2019-04-21T01:31:48.436Z,19.10
2019-04-21T01:34:27.148Z,21.90
2019-04-21T01:36:54.145Z,22.27
2019-04-21T01:39:30.837Z,20.37
2019-04-21T01:41:59.065Z,22.70
2019-04-21T01:44:36.083Z,22.03
2019-04-21T01:46:58.635Z,20.73
2019-04-21T01:49:25.826Z,20.10
2019-04-21T01:52:08.849Z,22.33
2019-04-21T01:55:00.181Z,19.83
2019-04-21T01:57:42.593Z,23.63
2019-04-21T02:00:13.563Z,22.30
2019-04-21T02:02:59.918Z,18.23
2019-04-21T02:05:34.379Z,19.67
2019-04-21T02:07:55.220Z,25.50
2019-04-21T02:10:35.279Z,21.57
2019-04-21T02:12:56.703Z,20.70
2019-04-21T02:15:36.013Z,19.90
2019-04-21T02:17:59.937Z,21.30
2019-04-21T02:20:25.784Z,19.40
2019-04-21T02:23:31.541Z,21.83
2019-04-21T02:25:38.512Z,22.50
2019-04-21T02:28:12.477Z,23.17
2019-04-21T02:31:05.900Z,23.90
2019-04-21T02:33:28.024Z,21.77
2019-04-21T02:36:04.799Z,18.93
2019-04-21T02:38:32.162Z,27.27
2019-04-21T02:43:38.864Z,19.53
2019-04-21T02:45:56.118Z,20.00
2019-04-21T02:51:15.259Z,22.43
2019-04-21T02:53:37.459Z,22.00
2019-04-21T02:58:34.848Z,24.53
2019-04-21T03:01:24.343Z,17.83
2019-04-21T03:04:00.681Z,20.17
2019-04-21T03:06:54.181Z,22.43
2019-04-21T03:09:29.752Z,21.90
2019-04-21T03:11:56.047Z,22.70
2019-04-21T03:14:40.805Z,20.60
2019-04-21T03:16:47.213Z,25.33
2019-04-21T03:19:33.007Z,19.63
2019-04-21T03:22:02.609Z,24.83
2019-04-21T03:24:29.009Z,21.17
2019-04-21T03:27:22.315Z,18.27
2019-04-21T03:29:29.527Z,23.13
2019-04-21T03:32:16.764Z,19.73
2019-04-21T03:39:37.483Z,20.23
2019-04-21T03:42:07.533Z,18.43
2019-04-21T03:44:32.286Z,18.47
2019-04-21T03:47:08.431Z,17.97
2019-04-21T03:52:42.461Z,18.77
2019-04-21T03:54:49.158Z,19.17
2019-04-21T03:59:38.847Z,18.60
2019-04-21T04:05:13.102Z,19.60
2019-04-21T04:07:59.470Z,19.77
2019-04-21T04:10:39.159Z,18.50
2019-04-21T04:13:00.822Z,20.50
2019-04-21T04:15:45.691Z,19.03
2019-04-21T04:18:00.876Z,18.93
2019-04-21T04:20:30.349Z,15.30
2019-04-21T04:23:02.939Z,22.20
2019-04-21T04:28:08.255Z,17.37
2019-04-21T04:30:38.239Z,19.93
2019-04-21T04:33:09.047Z,23.73
2019-04-21T04:38:20.116Z,18.77
2019-04-21T04:40:57.497Z,19.73
2019-04-21T04:45:56.465Z,17.77
2019-04-21T04:48:24.128Z,24.67
2019-04-21T04:50:53.535Z,21.63
2019-04-21T04:56:01.296Z,21.07
2019-04-21T04:58:29.692Z,20.07
2019-04-21T05:01:08.599Z,19.57
2019-04-21T05:03:40.175Z,20.40
2019-04-21T05:06:42.565Z,23.10
2019-04-21T05:14:09.962Z,27.33
2019-04-21T05:23:55.829Z,17.47
2019-04-21T05:26:27.481Z,20.17
2019-04-21T05:28:53.885Z,18.83
2019-04-21T05:34:42.640Z,20.57
2019-04-21T05:37:47.328Z,21.53
2019-04-21T05:40:38.903Z,19.33
2019-04-21T05:43:21.314Z,17.47
2019-04-21T05:45:53.560Z,15.67
2019-04-21T05:51:00.184Z,18.80
2019-04-21T05:53:46.813Z,18.00
2019-04-21T05:56:03.383Z,18.87
2019-04-21T05:58:34.869Z,34.00
2019-04-21T06:01:16.624Z,82.10
2019-04-21T06:03:44.861Z,58.33
2019-04-21T06:08:42.324Z,34.87
2019-04-21T06:11:23.883Z,29.53
2019-04-21T06:13:51.899Z,19.03
2019-04-21T06:16:13.981Z,21.90
2019-04-21T06:18:53.161Z,18.27
2019-04-21T06:21:16.477Z,16.20
2019-04-21T06:23:47.747Z,17.73
2019-04-21T06:28:54.557Z,19.23
2019-04-21T06:31:41.538Z,16.63
2019-04-21T06:34:13.162Z,18.97
2019-04-21T06:36:39.634Z,18.90
2019-04-21T06:39:17.915Z,21.50
2019-04-21T06:41:34.387Z,17.80
2019-04-21T06:44:07.580Z,20.00
2019-04-21T06:46:35.187Z,18.43
2019-04-21T06:49:02.596Z,18.37
2019-04-21T06:51:35.742Z,16.77
2019-04-21T06:54:09.623Z,16.53
2019-04-21T06:56:41.034Z,17.37
2019-04-21T06:59:21.118Z,20.23
2019-04-21T07:01:42.483Z,17.27
2019-04-21T07:04:18.863Z,21.43
2019-04-21T07:11:44.101Z,18.30
2019-04-21T07:16:52.564Z,17.53
2019-04-21T07:19:21.390Z,17.03
2019-04-21T07:22:03.324Z,23.03
2019-04-21T07:26:51.238Z,18.97
2019-04-21T07:29:20.641Z,17.53
2019-04-21T07:31:59.208Z,16.50
2019-04-21T07:34:27.088Z,19.70
2019-04-21T07:39:16.851Z,19.63
2019-04-21T07:41:49.774Z,15.37
2019-04-21T07:44:20.943Z,18.10
2019-04-21T07:46:47.014Z,17.20
2019-04-21T07:50:18.018Z,17.60
2019-04-21T07:52:39.444Z,21.20
2019-04-21T07:55:22.067Z,25.27
2019-04-21T07:57:39.426Z,19.10
2019-04-21T08:00:22.693Z,16.37
2019-04-21T08:02:46.470Z,20.00
2019-04-21T08:10:16.098Z,17.87
2019-04-21T08:12:41.898Z,22.87
2019-04-21T08:15:23.531Z,19.10
2019-04-21T08:17:46.866Z,19.03
2019-04-21T08:20:19.884Z,22.27
2019-04-21T08:22:51.081Z,18.87
2019-04-21T08:25:19.589Z,19.70
2019-04-21T08:27:55.467Z,19.60
2019-04-21T08:30:26.247Z,21.37
2019-04-21T08:33:02.415Z,17.57
2019-04-21T08:37:55.225Z,20.40
2019-04-21T08:40:31.576Z,19.40
2019-04-21T08:42:54.982Z,19.77
2019-04-21T08:45:35.365Z,22.53
2019-04-21T08:48:04.576Z,21.00
2019-04-21T08:50:34.245Z,19.80
2019-04-21T08:53:22.584Z,20.43
2019-04-21T08:55:58.647Z,21.25
2019-04-21T08:58:42.561Z,20.48
2019-04-21T09:01:39.767Z,19.20
2019-04-21T09:04:21.166Z,21.12
2019-04-21T09:06:57.236Z,19.73
2019-04-21T09:11:44.480Z,17.87
2019-04-21T09:14:13.124Z,19.20
2019-04-21T09:16:44.353Z,20.68
2019-04-21T09:19:21.451Z,22.00
2019-04-21T09:21:52.960Z,19.77
2019-04-21T09:24:18.896Z,22.37
2019-04-21T09:26:48.108Z,23.10
2019-04-21T09:29:10.846Z,19.35
2019-04-21T09:31:37.493Z,18.32
2019-04-21T09:34:04.450Z,22.00
2019-04-21T09:36:38.928Z,17.25
2019-04-21T09:39:12.963Z,22.17
2019-04-21T09:41:39.083Z,22.75
2019-04-21T09:44:15.068Z,22.48
2019-04-21T09:46:45.329Z,18.17
2019-04-21T09:49:12.524Z,20.05
2019-04-21T09:51:41.606Z,20.32
2019-04-21T09:54:20.157Z,20.52
2019-04-21T09:56:51.063Z,19.85
2019-04-21T09:59:20.569Z,23.00
2019-04-21T10:01:55.006Z,19.92
2019-04-21T10:04:14.476Z,20.08
2019-04-21T10:06:43.589Z,20.10
2019-04-21T10:09:17.317Z,19.15
2019-04-21T10:11:44.075Z,22.65
2019-04-21T10:14:13.874Z,24.02
2019-04-21T10:17:12.938Z,23.38
2019-04-21T10:19:42.210Z,23.87
2019-04-21T10:22:12.654Z,24.40
2019-04-21T10:24:42.480Z,22.17
2019-04-21T10:27:13.305Z,20.45
2019-04-21T10:29:44.611Z,23.05
2019-04-21T10:32:13.588Z,21.87
2019-04-21T10:34:43.363Z,22.30
2019-04-21T10:37:13.326Z,21.30
2019-04-21T10:39:43.024Z,24.57
2019-04-21T10:42:13.182Z,21.25
2019-04-21T10:44:43.177Z,21.20
2019-04-21T10:47:12.851Z,26.05
2019-04-21T10:49:44.621Z,22.52
2019-04-21T10:52:19.382Z,22.27
2019-04-21T10:55:11.240Z,21.07
2019-04-21T10:57:31.002Z,25.82
2019-04-21T11:00:01.392Z,27.32
2019-04-21T11:02:46.499Z,21.42
2019-04-21T11:05:16.746Z,21.62
2019-04-21T11:08:01.090Z,25.90
2019-04-21T11:10:22.267Z,24.95
2019-04-21T11:12:52.674Z,21.60
2019-04-21T11:15:23.223Z,24.02
2019-04-21T11:17:52.625Z,24.90
2019-04-21T11:20:22.789Z,23.57
2019-04-21T11:22:53.526Z,22.95
2019-04-21T11:25:24.141Z,23.40
2019-04-21T11:27:53.445Z,24.75
2019-04-21T11:30:23.379Z,24.50
2019-04-21T11:32:53.127Z,23.22
2019-04-21T11:35:23.425Z,27.45
2019-04-21T11:37:59.401Z,22.37
2019-04-21T11:40:25.463Z,22.75
2019-04-21T11:42:55.758Z,22.45
2019-04-21T11:45:32.539Z,22.82
2019-04-21T11:48:12.440Z,23.42
2019-04-21T11:50:43.260Z,25.50
2019-04-21T11:53:12.749Z,20.82
2019-04-21T11:55:45.362Z,22.40
2019-04-21T11:58:16.043Z,23.07
2019-04-21T12:00:47.413Z,22.07
2019-04-21T12:03:17.357Z,24.23
2019-04-21T12:05:48.236Z,22.42
2019-04-21T12:08:24.937Z,23.22
2019-04-21T12:10:49.276Z,21.35
2019-04-21T12:13:18.640Z,23.83
2019-04-21T12:15:49.113Z,19.90
2019-04-21T12:18:19.700Z,19.48
2019-04-21T12:20:49.416Z,15.00
2019-04-21T12:23:18.554Z,17.00
2019-04-21T12:25:49.477Z,19.00
2019-04-21T12:28:19.716Z,20.85
2019-04-21T12:30:52.062Z,16.30
2019-04-21T12:33:40.325Z,19.48
2019-04-21T12:36:09.803Z,17.30
2019-04-21T12:38:48.214Z,16.52
2019-04-21T12:41:10.796Z,18.52
2019-04-21T12:43:40.078Z,16.95
2019-04-21T12:46:09.822Z,18.45
2019-04-21T12:48:39.988Z,17.07
2019-04-21T12:51:10.124Z,18.60
2019-04-21T12:53:39.520Z,16.32
2019-04-21T12:56:09.486Z,18.15
2019-04-21T12:58:39.529Z,12.18
2019-04-21T13:01:09.373Z,16.70
2019-04-21T13:03:39.748Z,14.73
2019-04-21T13:06:09.972Z,17.65
2019-04-21T13:08:50.951Z,16.07
2019-04-21T13:11:11.357Z,17.40
2019-04-21T13:13:42.047Z,16.52
2019-04-21T13:16:11.767Z,14.53
2019-04-21T13:18:41.707Z,14.10
2019-04-21T13:21:12.069Z,13.18
2019-04-21T13:23:41.286Z,15.15
2019-04-21T13:26:11.410Z,17.02
2019-04-21T13:28:40.603Z,15.68
2019-04-21T13:31:09.896Z,14.58
2019-04-21T13:33:39.892Z,13.48
2019-04-21T13:36:09.701Z,13.65
2019-04-21T13:38:50.844Z,11.55
2019-04-21T13:41:32.582Z,16.00
2019-04-21T13:44:10.995Z,13.30
2019-04-21T13:46:40.689Z,12.25
2019-04-21T13:49:11.603Z,11.33
2019-04-21T13:51:41.637Z,12.28
2019-04-21T13:54:11.557Z,8.83
2019-04-21T13:56:40.704Z,10.65
2019-04-21T13:59:10.554Z,10.48
2019-04-21T14:01:39.779Z,10.13
2019-04-21T14:04:09.524Z,9.50
2019-04-21T14:06:40.474Z,10.15
2019-04-21T14:09:10.897Z,10.90
2019-04-21T14:11:41.141Z,9.63
2019-04-21T14:14:10.577Z,12.13
2019-04-21T14:16:40.206Z,9.00
2019-04-21T14:19:09.743Z,9.38
2019-04-21T14:21:41.285Z,8.18
2019-04-21T14:24:10.850Z,11.78
2019-04-21T14:26:40.567Z,11.83
2019-04-21T14:29:11.401Z,8.93
2019-04-21T14:31:41.842Z,7.95
2019-04-21T14:34:12.122Z,7.30
2019-04-21T14:36:41.326Z,7.30
2019-04-21T14:39:12.501Z,8.73
2019-04-21T14:41:42.190Z,9.00
2019-04-21T14:44:11.516Z,7.92
2019-04-21T14:46:55.327Z,9.03
2019-04-21T14:50:03.054Z,8.40
2019-04-21T14:52:35.174Z,11.00
2019-04-21T14:55:18.546Z,9.78
2019-04-21T14:57:47.654Z,11.57
2019-04-21T15:00:19.022Z,11.33
2019-04-21T15:02:49.629Z,9.78
2019-04-21T15:05:19.695Z,8.20
2019-04-21T15:07:49.171Z,9.35
2019-04-21T15:10:23.557Z,10.38
2019-04-21T15:12:49.820Z,9.40
2019-04-21T15:15:20.090Z,9.03
2019-04-21T15:17:49.524Z,9.30
2019-04-21T15:20:20.185Z,8.98
2019-04-21T15:22:50.393Z,6.95
2019-04-21T15:25:20.409Z,8.50
2019-04-21T15:27:50.903Z,8.55
2019-04-21T15:30:20.780Z,9.90
2019-04-21T15:32:50.606Z,9.30
2019-04-21T15:35:19.719Z,7.30
2019-04-21T15:37:49.870Z,11.00
2019-04-21T15:40:31.513Z,7.80
2019-04-21T15:42:52.511Z,10.43
2019-04-21T15:45:22.013Z,11.93
2019-04-21T15:47:51.892Z,11.18
2019-04-21T15:50:23.150Z,10.13
2019-04-21T15:52:54.149Z,11.85
2019-04-21T15:55:41.333Z,11.83
2019-04-21T15:58:34.414Z,11.25
2019-04-21T16:01:14.491Z,10.60
2019-04-21T16:03:44.832Z,12.58
2019-04-21T16:06:13.946Z,9.33
2019-04-21T16:08:47.601Z,9.18
2019-04-21T16:11:15.671Z,9.38
2019-04-21T16:13:45.885Z,11.35
2019-04-21T16:16:15.028Z,11.30
2019-04-21T16:18:45.827Z,13.88
2019-04-21T16:21:15.931Z,10.05
2019-04-21T16:23:46.625Z,10.28
2019-04-21T16:26:17.026Z,12.73
2019-04-21T16:28:46.932Z,10.28
2019-04-21T16:31:16.489Z,13.45
2019-04-21T16:33:47.055Z,9.23
2019-04-21T16:36:17.110Z,11.55
2019-04-21T16:38:47.366Z,10.23
2019-04-21T16:41:18.160Z,10.13
2019-04-21T16:43:48.985Z,10.68
2019-04-21T16:46:19.646Z,8.70
2019-04-21T16:48:49.669Z,8.95
2019-04-21T16:51:20.059Z,13.32
2019-04-21T16:53:53.614Z,7.83
2019-04-21T16:56:27.063Z,10.48
2019-04-21T16:59:00.798Z,10.68
2019-04-21T17:01:31.727Z,11.83
2019-04-21T17:04:02.370Z,8.98
2019-04-21T17:06:33.121Z,8.88
2019-04-21T17:09:03.001Z,8.28
2019-04-21T17:11:35.325Z,9.23
2019-04-21T17:14:03.543Z,11.12
2019-04-21T17:17:16.146Z,7.85
2019-04-21T17:19:13.518Z,7.62
2019-04-21T17:21:34.373Z,8.38
2019-04-21T17:24:04.428Z,6.67
2019-04-21T17:26:37.216Z,8.10
2019-04-21T17:29:04.991Z,7.97
2019-04-21T17:31:34.125Z,7.87
2019-04-21T17:34:10.300Z,7.53
2019-04-21T17:36:34.906Z,10.25
2019-04-21T17:39:04.839Z,7.75
2019-04-21T17:41:41.580Z,8.75
2019-04-21T17:44:04.576Z,7.78
2019-04-21T17:46:43.864Z,7.47
2019-04-21T17:49:05.229Z,7.05
2019-04-21T17:52:00.507Z,6.87
2019-04-21T17:54:42.929Z,8.38
2019-04-21T17:57:26.679Z,7.42
2019-04-21T18:00:15.189Z,8.53
2019-04-21T18:02:35.388Z,7.85
2019-04-21T18:05:03.990Z,9.35
2019-04-21T18:07:34.969Z,8.33
2019-04-21T18:10:04.730Z,8.40
2019-04-21T18:12:30.407Z,9.03
2019-04-21T18:14:59.265Z,8.43
2019-04-21T18:17:18.423Z,9.15
2019-04-21T18:19:51.315Z,8.48
2019-04-21T18:22:49.189Z,11.03
2019-04-21T18:25:32.025Z,8.48
2019-04-21T18:27:50.547Z,11.95
2019-04-21T18:30:49.912Z,9.43
2019-04-21T18:33:26.626Z,9.65
2019-04-21T18:36:08.603Z,8.78
2019-04-21T18:39:06.903Z,9.03
2019-04-21T18:41:17.431Z,14.55
2019-04-21T18:44:19.443Z,13.98
2019-04-21T18:46:52.534Z,15.10
2019-04-21T18:49:07.719Z,24.82
2019-04-21T18:52:04.934Z,26.23
2019-04-21T18:54:47.221Z,28.67
2019-04-21T18:57:07.897Z,26.17
2019-04-21T18:59:36.135Z,28.83
2019-04-21T19:02:08.086Z,36.42
2019-04-21T19:04:35.142Z,31.52
2019-04-21T19:07:18.269Z,35.52
2019-04-21T19:10:09.942Z,33.48
2019-04-21T19:12:35.043Z,32.58
2019-04-21T19:14:55.035Z,31.85
2019-04-21T19:17:58.126Z,36.20
2019-04-21T19:20:01.926Z,34.70
2019-04-21T19:22:31.220Z,33.42
2019-04-21T19:24:59.702Z,37.23
2019-04-21T19:27:28.142Z,39.95
2019-04-21T19:30:05.782Z,36.68
2019-04-21T19:32:28.813Z,36.67
2019-04-21T19:34:47.397Z,34.20
2019-04-21T19:37:18.932Z,31.30
2019-04-21T19:39:58.927Z,33.63
2019-04-21T19:42:25.622Z,35.90
2019-04-21T19:45:03.311Z,35.33
2019-04-21T19:47:41.130Z,39.60
2019-04-21T19:50:05.976Z,38.28
2019-04-21T19:52:31.927Z,40.20
2019-04-21T19:54:50.736Z,36.80
2019-04-21T19:57:20.920Z,40.48
2019-04-21T19:59:55.333Z,37.47
2019-04-21T20:02:22.420Z,34.10
2019-04-21T20:05:00.802Z,35.57
2019-04-21T20:07:37.803Z,37.78
2019-04-21T20:10:15.484Z,34.07
2019-04-21T20:13:06.424Z,37.40
2019-04-21T20:15:21.830Z,37.00
2019-04-21T20:17:42.648Z,35.87
2019-04-21T20:19:58.254Z,34.10
2019-04-21T20:22:32.657Z,33.47
2019-04-21T20:25:04.950Z,33.50
2019-04-21T20:27:40.929Z,35.67
2019-04-21T20:30:16.165Z,36.47
2019-04-21T20:32:48.853Z,35.60
2019-04-21T20:35:21.233Z,35.47
2019-04-21T20:37:47.874Z,38.00
2019-04-21T20:40:10.114Z,35.10
2019-04-21T20:42:42.529Z,38.13
2019-04-21T20:47:41.322Z,33.13
2019-04-21T20:50:19.639Z,35.77
2019-04-21T20:52:55.175Z,34.43
2019-04-21T20:55:19.987Z,33.37
2019-04-21T20:57:53.786Z,35.40
2019-04-21T21:00:32.641Z,35.13
2019-04-21T21:03:07.084Z,37.47
2019-04-21T21:05:28.404Z,36.37
2019-04-21T21:08:13.614Z,36.73
2019-04-21T21:10:34.736Z,33.53
2019-04-21T21:13:14.261Z,33.53
2019-04-21T21:15:42.297Z,35.27
2019-04-21T21:18:22.728Z,39.73
2019-04-21T21:20:43.656Z,39.30
2019-04-21T21:23:05.755Z,36.07
2019-04-21T21:25:46.242Z,36.77
2019-04-21T21:28:04.271Z,34.53
2019-04-21T21:30:41.505Z,36.27
2019-04-21T21:33:15.349Z,36.93
2019-04-21T21:35:37.942Z,36.93
2019-04-21T21:38:21.293Z,37.80
2019-04-21T21:40:45.612Z,34.57
2019-04-21T21:43:01.524Z,34.33
2019-04-21T21:45:40.168Z,34.07
2019-04-21T21:48:20.558Z,39.17
2019-04-21T21:50:45.664Z,35.07
2019-04-21T21:53:13.207Z,38.03
2019-04-21T21:55:35.870Z,36.17
2019-04-21T21:58:06.437Z,34.60
2019-04-21T22:00:42.031Z,35.93
2019-04-21T22:03:17.529Z,37.77
2019-04-21T22:05:46.541Z,34.70
2019-04-21T22:08:10.451Z,38.27
2019-04-21T22:10:41.204Z,34.50
2019-04-21T22:13:14.695Z,38.53
2019-04-21T22:15:41.639Z,35.33
2019-04-21T22:18:31.453Z,36.83
2019-04-21T22:20:57.480Z,39.97
2019-04-21T22:23:24.131Z,38.23
2019-04-21T22:25:45.372Z,39.43
2019-04-21T22:28:14.157Z,41.80
2019-04-21T22:30:47.550Z,38.03
2019-04-21T22:33:17.524Z,37.80
2019-04-21T22:35:53.328Z,37.50
2019-04-21T22:38:31.034Z,41.00
2019-04-21T22:41:02.944Z,39.53
2019-04-21T22:43:25.008Z,36.73
2019-04-21T22:45:49.501Z,40.23
2019-04-21T22:48:21.726Z,43.83
2019-04-21T22:50:50.662Z,39.20
2019-04-21T22:53:21.441Z,36.27
2019-04-21T22:55:57.238Z,33.27
2019-04-21T22:58:28.252Z,39.20
2019-04-21T23:00:57.139Z,37.83
2019-04-21T23:03:25.205Z,37.67
2019-04-21T23:05:55.914Z,38.80
2019-04-21T23:08:31.780Z,38.77
2019-04-21T23:10:59.854Z,37.63
2019-04-21T23:13:28.577Z,39.03
2019-04-21T23:16:00.787Z,37.70
2019-04-21T23:18:45.074Z,39.03
2019-04-21T23:21:14.724Z,41.33
2019-04-21T23:23:54.642Z,38.33
2019-04-21T23:26:21.018Z,37.33
2019-04-21T23:28:50.689Z,38.63
2019-04-21T23:31:24.482Z,37.63
2019-04-21T23:33:34.621Z,37.33
2019-04-21T23:36:13.001Z,35.93
2019-04-21T23:38:43.526Z,37.63
2019-04-21T23:41:08.985Z,38.80
2019-04-21T23:43:38.152Z,35.77
2019-04-21T23:46:10.397Z,38.77
2019-04-21T23:48:55.870Z,38.53
2019-04-21T23:51:21.456Z,38.97
2019-04-21T23:53:41.535Z,37.47
2019-04-21T23:56:15.376Z,41.53
2019-04-21T23:58:44.856Z,37.87
